Time;durP1;ratioP1;P1;durP2;ratioP2;P2;SDS_P1;SDS_P2;PMS_P1;PMS_P2;Temp;Humidity;BMP_temperature;BMP_pressure;BME280_temperature;BME280_humidity;BME280_pressure;Samples;Min_cycle;Max_cycle;Signal;HPM_P1;HPM_P2
2023/06/19 00:02:20;;;;;;;9.93;8.18;;;22.40;99.90;;;;;;5040995;28;20045;-74
2023/06/19 00:04:46;;;;;;;10.75;8.07;;;22.40;99.90;;;;;;5041080;28;20470;-75
2023/06/19 00:07:11;;;;;;;9.73;7.80;;;22.40;99.90;;;;;;5038910;28;20087;-74
2023/06/19 00:09:37;;;;;;;12.15;8.52;;;22.40;99.90;;;;;;5041164;28;20029;-73
2023/06/19 00:12:04;;;;;;;11.80;8.43;;;22.30;99.90;;;;;;5039963;28;20450;-74
2023/06/19 00:14:29;;;;;;;11.05;7.72;;;22.40;99.90;;;;;;5043051;28;20041;-75
2023/06/19 00:16:56;;;;;;;9.05;8.05;;;22.30;99.90;;;;;;5043481;28;20379;-74
2023/06/19 00:19:21;;;;;;;10.73;8.90;;;22.30;99.90;;;;;;5044589;28;20025;-74
2023/06/19 00:21:47;;;;;;;12.00;8.45;;;22.30;99.90;;;;;;5043793;28;20029;-73
2023/06/19 00:24:13;;;;;;;9.50;8.07;;;22.20;99.90;;;;;;5044030;28;20029;-74
2023/06/19 00:26:40;;;;;;;9.63;8.52;;;22.20;99.90;;;;;;5043344;28;20060;-75
2023/06/19 00:29:06;;;;;;;10.48;8.35;;;22.20;99.90;;;;;;5043074;28;20037;-75
2023/06/19 00:31:32;;;;;;;11.23;8.77;;;22.20;99.90;;;;;;5043968;28;20018;-75
2023/06/19 00:33:57;;;;;;;10.95;8.20;;;22.10;99.90;;;;;;5044471;28;20022;-76
2023/06/19 00:36:25;;;;;;;14.48;8.48;;;22.10;99.90;;;;;;5042826;28;20026;-75
2023/06/19 00:38:51;;;;;;;14.13;9.63;;;22.00;99.90;;;;;;5043857;28;20075;-75
2023/06/19 00:41:17;;;;;;;11.88;9.15;;;22.00;99.90;;;;;;5044391;28;20017;-75
2023/06/19 00:43:43;;;;;;;10.98;9.30;;;22.00;99.90;;;;;;5043979;28;20404;-74
2023/06/19 00:46:10;;;;;;;12.90;9.70;;;21.90;99.90;;;;;;5044131;28;20075;-75
2023/06/19 00:48:36;;;;;;;11.18;9.45;;;21.90;99.90;;;;;;5042667;28;20030;-75
2023/06/19 00:51:01;;;;;;;10.30;9.20;;;21.80;99.90;;;;;;5043433;28;20105;-75
2023/06/19 00:53:27;;;;;;;11.93;9.40;;;21.80;99.90;;;;;;5043594;28;20549;-75
2023/06/19 00:55:54;;;;;;;12.40;9.40;;;21.80;99.90;;;;;;5042153;28;20083;-74
2023/06/19 00:58:21;;;;;;;11.65;9.15;;;21.80;99.90;;;;;;5042423;28;20101;-75
2023/06/19 01:00:47;;;;;;;13.27;9.95;;;21.80;99.90;;;;;;5042500;28;20052;-75
2023/06/19 01:03:13;;;;;;;11.38;9.57;;;21.70;99.90;;;;;;5043775;28;20368;-75
2023/06/19 01:05:39;;;;;;;12.57;9.55;;;21.70;99.90;;;;;;5042808;28;20097;-75
2023/06/19 01:08:29;;;;;;;12.80;9.77;;;21.70;99.90;;;;;;5043351;28;20826;-74
2023/06/19 01:10:59;;;;;;;12.10;9.65;;;21.70;99.90;;;;;;5042218;28;20085;-74
2023/06/19 01:13:36;;;;;;;11.75;9.48;;;21.60;99.90;;;;;;5043664;28;20027;-74
2023/06/19 01:16:03;;;;;;;11.57;9.63;;;21.60;99.90;;;;;;5042076;28;20060;-74
2023/06/19 01:18:31;;;;;;;16.38;9.45;;;21.60;99.90;;;;;;5041707;28;20018;-74
2023/06/19 01:21:08;;;;;;;10.65;9.50;;;21.60;99.90;;;;;;5042936;28;20158;-74
2023/06/19 01:23:33;;;;;;;11.05;9.75;;;21.60;99.90;;;;;;5042810;28;20033;-74
2023/06/19 01:25:59;;;;;;;13.77;10.15;;;21.60;99.90;;;;;;5042652;28;20028;-73
2023/06/19 01:28:26;;;;;;;12.80;9.50;;;21.50;99.90;;;;;;5043375;28;20085;-74
2023/06/19 01:30:54;;;;;;;11.32;9.55;;;21.50;99.90;;;;;;5042947;28;20113;-74
2023/06/19 01:33:32;;;;;;;12.50;9.43;;;21.50;99.90;;;;;;5043160;28;20025;-75
2023/06/19 01:35:58;;;;;;;11.52;9.70;;;21.50;99.90;;;;;;5042964;28;20052;-74
2023/06/19 01:38:26;;;;;;;14.88;10.38;;;21.50;99.90;;;;;;5040818;28;20037;-75
2023/06/19 01:40:54;;;;;;;13.68;10.25;;;21.50;99.90;;;;;;5043556;28;20498;-74
2023/06/19 01:43:21;;;;;;;13.77;9.75;;;21.40;99.90;;;;;;5041691;28;20018;-74
2023/06/19 01:45:46;;;;;;;13.55;10.40;;;21.50;99.90;;;;;;5042015;28;20021;-74
2023/06/19 01:48:13;;;;;;;10.85;9.70;;;21.40;99.90;;;;;;5042064;28;20044;-73
2023/06/19 01:50:39;;;;;;;11.43;9.93;;;21.50;99.90;;;;;;5042648;28;20061;-75
2023/06/19 01:53:05;;;;;;;13.65;10.77;;;21.50;99.90;;;;;;5042039;28;20030;-75
2023/06/19 01:55:31;;;;;;;15.43;10.27;;;21.50;99.90;;;;;;5041333;28;20044;-74
2023/06/19 01:57:56;;;;;;;15.13;9.77;;;21.40;99.90;;;;;;5042805;28;21567;-73
2023/06/19 02:00:22;;;;;;;13.30;10.00;;;21.40;99.90;;;;;;5042623;28;20040;-74
2023/06/19 02:02:48;;;;;;;11.98;9.55;;;21.40;99.90;;;;;;5042367;28;20024;-74
2023/06/19 02:05:13;;;;;;;12.00;10.50;;;21.40;99.90;;;;;;5041605;28;20025;-74
2023/06/19 02:07:39;;;;;;;14.88;9.90;;;21.40;99.90;;;;;;5042503;28;20026;-76
2023/06/19 02:10:06;;;;;;;13.00;9.93;;;21.40;99.90;;;;;;5042727;28;20061;-74
2023/06/19 02:12:31;;;;;;;12.90;9.45;;;21.40;99.90;;;;;;5040738;28;20018;-74
2023/06/19 02:14:57;;;;;;;11.85;9.85;;;21.40;99.90;;;;;;5042165;28;20435;-76
2023/06/19 02:17:22;;;;;;;11.93;9.73;;;21.40;99.90;;;;;;5041141;28;20049;-75
2023/06/19 02:19:48;;;;;;;13.30;9.65;;;21.20;99.90;;;;;;5040928;28;20060;-76
2023/06/19 02:22:13;;;;;;;12.75;10.35;;;21.30;99.90;;;;;;5040459;28;20029;-74
2023/06/19 02:24:39;;;;;;;11.40;9.75;;;21.40;99.90;;;;;;5041226;28;20025;-76
2023/06/19 02:27:05;;;;;;;12.07;9.80;;;21.30;99.90;;;;;;5042072;28;20032;-76
2023/06/19 02:29:33;;;;;;;12.45;10.10;;;21.30;99.90;;;;;;5041855;28;20498;-74
2023/06/19 02:31:59;;;;;;;11.15;9.90;;;21.30;99.90;;;;;;5040941;28;20021;-76
2023/06/19 02:34:25;;;;;;;12.40;9.77;;;21.30;99.90;;;;;;5040621;28;20029;-74
2023/06/19 02:36:50;;;;;;;11.95;9.55;;;21.30;99.90;;;;;;5041783;28;20046;-75
2023/06/19 02:39:16;;;;;;;11.13;9.43;;;21.30;99.90;;;;;;5041096;28;20089;-75
2023/06/19 02:41:45;;;;;;;11.10;9.93;;;21.20;99.90;;;;;;5042027;28;20025;-73
2023/06/19 02:44:11;;;;;;;12.50;9.63;;;21.20;99.90;;;;;;5040647;28;20018;-76
2023/06/19 02:46:37;;;;;;;13.25;9.88;;;21.20;99.90;;;;;;5040594;28;20033;-74
2023/06/19 02:49:03;;;;;;;11.90;9.40;;;21.20;99.90;;;;;;5041281;28;20013;-75
2023/06/19 02:51:28;;;;;;;14.35;10.13;;;21.20;99.90;;;;;;5040126;28;20101;-75
2023/06/19 02:53:54;;;;;;;11.43;9.52;;;21.20;99.90;;;;;;5041820;28;20029;-76
2023/06/19 02:56:20;;;;;;;13.52;9.95;;;21.30;99.90;;;;;;5041431;28;20041;-75
2023/06/19 02:58:45;;;;;;;12.18;9.73;;;21.30;99.90;;;;;;5040386;28;20025;-76
2023/06/19 03:01:11;;;;;;;11.63;9.63;;;21.20;99.90;;;;;;5042206;28;20014;-76
2023/06/19 03:03:37;;;;;;;11.10;9.07;;;21.30;99.90;;;;;;5041670;28;20454;-75
2023/06/19 03:06:07;;;;;;;12.60;9.05;;;21.40;99.90;;;;;;5040518;28;20032;-75
2023/06/19 03:08:39;;;;;;;12.88;9.88;;;21.30;99.90;;;;;;5041087;28;20434;-76
2023/06/19 03:11:05;;;;;;;12.05;9.60;;;21.30;99.90;;;;;;5040988;28;20104;-74
2023/06/19 03:13:50;;;;;;;11.45;9.40;;;21.30;99.90;;;;;;5041866;28;20097;-75
2023/06/19 03:16:16;;;;;;;11.68;10.00;;;21.30;99.90;;;;;;5040209;28;20049;-76
2023/06/19 03:18:45;;;;;;;12.40;9.90;;;21.30;99.90;;;;;;5041157;28;20022;-75
2023/06/19 03:21:11;;;;;;;10.88;9.10;;;21.40;99.90;;;;;;5039984;28;20040;-76
2023/06/19 03:23:37;;;;;;;11.02;9.82;;;21.40;99.90;;;;;;5041211;28;20029;-74
2023/06/19 03:26:03;;;;;;;12.57;9.82;;;21.30;99.90;;;;;;5041074;28;20028;-76
2023/06/19 03:28:28;;;;;;;12.38;8.88;;;21.30;99.90;;;;;;5041427;28;20084;-78
2023/06/19 03:30:54;;;;;;;13.23;9.68;;;21.30;99.90;;;;;;5041561;28;20028;-75
2023/06/19 03:33:20;;;;;;;10.80;9.35;;;21.40;99.90;;;;;;5039693;28;20026;-75
2023/06/19 03:35:45;;;;;;;12.52;10.00;;;21.40;99.90;;;;;;5041782;28;20760;-75
2023/06/19 03:38:11;;;;;;;11.32;9.70;;;21.40;99.90;;;;;;5041368;28;20127;-74
2023/06/19 03:40:36;;;;;;;10.75;9.50;;;21.40;99.90;;;;;;5039291;28;20068;-74
2023/06/19 03:43:02;;;;;;;12.05;9.85;;;21.40;99.90;;;;;;5041693;28;20029;-75
2023/06/19 03:45:28;;;;;;;12.23;9.95;;;21.40;99.90;;;;;;5039704;28;20120;-76
2023/06/19 03:47:53;;;;;;;12.25;9.75;;;21.40;99.90;;;;;;5041631;28;20048;-76
2023/06/19 03:50:19;;;;;;;11.85;9.65;;;21.50;99.90;;;;;;5043993;28;20076;-75
2023/06/19 03:52:45;;;;;;;12.00;9.93;;;21.50;99.90;;;;;;5043553;28;20017;-77
2023/06/19 03:55:10;;;;;;;17.58;10.32;;;21.50;99.90;;;;;;5042093;28;20040;-77
2023/06/19 03:57:36;;;;;;;31.42;12.05;;;21.50;99.90;;;;;;5043909;28;20021;-76
2023/06/19 04:00:03;;;;;;;13.18;11.13;;;21.50;99.90;;;;;;5045063;28;20034;-75
2023/06/19 04:02:29;;;;;;;14.70;10.60;;;21.50;99.90;;;;;;5044884;28;20017;-74
2023/06/19 04:04:54;;;;;;;16.02;11.20;;;21.50;99.90;;;;;;5044127;28;20022;-76
2023/06/19 04:07:20;;;;;;;12.77;10.88;;;21.50;99.90;;;;;;5044656;28;20029;-74
2023/06/19 04:09:46;;;;;;;13.70;11.07;;;21.50;99.90;;;;;;5044701;28;20044;-77
2023/06/19 04:12:11;;;;;;;16.05;10.27;;;21.50;99.90;;;;;;5044944;28;20029;-73
2023/06/19 04:14:37;;;;;;;15.57;10.32;;;21.50;99.90;;;;;;5041223;28;20611;-74
2023/06/19 04:17:02;;;;;;;14.20;10.40;;;21.50;99.90;;;;;;5044499;28;20579;-76
2023/06/19 04:19:28;;;;;;;11.80;9.90;;;21.40;99.90;;;;;;5043458;28;20025;-75
2023/06/19 04:21:54;;;;;;;15.02;10.80;;;21.40;99.90;;;;;;5042217;28;20368;-75
2023/06/19 04:24:20;;;;;;;12.68;10.25;;;21.40;99.90;;;;;;5043277;28;20053;-75
2023/06/19 04:26:45;;;;;;;14.23;10.07;;;21.30;99.90;;;;;;5043415;28;20045;-75
2023/06/19 04:29:16;;;;;;;13.10;9.93;;;21.30;99.90;;;;;;5043679;28;20033;-75
2023/06/19 04:31:46;;;;;;;12.95;9.75;;;21.30;99.90;;;;;;5043934;28;20022;-74
2023/06/19 04:34:14;;;;;;;11.68;9.93;;;21.30;99.90;;;;;;5042620;28;20025;-74
2023/06/19 04:36:40;;;;;;;11.90;9.60;;;21.30;99.90;;;;;;5042524;28;20043;-74
2023/06/19 04:39:06;;;;;;;12.18;9.55;;;21.20;99.90;;;;;;5044467;28;21117;-73
2023/06/19 04:41:32;;;;;;;12.88;9.50;;;21.20;99.90;;;;;;5041887;28;20078;-75
2023/06/19 04:43:57;;;;;;;14.93;9.85;;;21.10;99.90;;;;;;5040758;28;21391;-74
2023/06/19 04:46:23;;;;;;;14.00;9.85;;;21.10;99.90;;;;;;5039998;28;20470;-75
2023/06/19 04:48:51;;;;;;;14.45;10.20;;;21.10;99.90;;;;;;5043862;28;20022;-73
2023/06/19 04:51:20;;;;;;;11.00;9.27;;;21.10;99.90;;;;;;5043552;28;20037;-74
2023/06/19 04:53:46;;;;;;;11.88;10.05;;;21.10;99.90;;;;;;5042583;28;20029;-75
2023/06/19 04:56:12;;;;;;;13.20;9.77;;;21.10;99.90;;;;;;5044383;28;20044;-75
2023/06/19 04:58:45;;;;;;;10.95;9.65;;;21.10;99.90;;;;;;5042380;28;20033;-74
2023/06/19 05:01:12;;;;;;;13.73;9.32;;;21.20;99.90;;;;;;5044480;28;20089;-74
2023/06/19 05:03:38;;;;;;;12.35;9.18;;;21.20;99.90;;;;;;5044269;28;20470;-74
2023/06/19 05:06:03;;;;;;;11.68;9.57;;;21.20;99.90;;;;;;5043925;28;20039;-74
2023/06/19 05:08:29;;;;;;;11.85;10.00;;;21.20;99.90;;;;;;5042596;28;20029;-73
2023/06/19 05:10:54;;;;;;;13.25;9.57;;;21.20;99.90;;;;;;5044080;28;20460;-74
2023/06/19 05:13:20;;;;;;;14.02;9.13;;;21.20;99.90;;;;;;5043768;28;20109;-74
2023/06/19 05:15:45;;;;;;;13.77;9.20;;;21.20;99.90;;;;;;5042728;28;20041;-75
2023/06/19 05:18:11;;;;;;;15.02;10.02;;;21.20;99.90;;;;;;5042365;28;20034;-73
2023/06/19 05:20:37;;;;;;;12.20;9.75;;;21.20;99.90;;;;;;5043567;28;20031;-73
2023/06/19 05:23:02;;;;;;;16.48;10.15;;;21.20;99.90;;;;;;5041819;28;20025;-74
2023/06/19 05:25:28;;;;;;;14.70;9.27;;;21.10;99.90;;;;;;5043730;28;20024;-74
2023/06/19 05:27:53;;;;;;;12.13;9.70;;;21.00;99.90;;;;;;5043076;28;20038;-74
2023/06/19 05:30:19;;;;;;;13.93;9.52;;;21.00;99.90;;;;;;5043684;28;20028;-73
2023/06/19 05:32:44;;;;;;;11.80;9.48;;;21.00;99.90;;;;;;5043162;28;20022;-73
2023/06/19 05:35:10;;;;;;;13.80;9.85;;;21.00;99.90;;;;;;5042004;28;20024;-73
2023/06/19 05:37:35;;;;;;;13.05;9.25;;;21.00;99.90;;;;;;5043487;28;20044;-74
2023/06/19 05:40:01;;;;;;;11.35;9.38;;;21.00;99.90;;;;;;5043251;28;20048;-73
2023/06/19 05:42:27;;;;;;;12.35;9.52;;;21.10;99.90;;;;;;5041694;28;20025;-73
2023/06/19 05:44:52;;;;;;;11.63;9.77;;;21.10;99.90;;;;;;5043567;28;20083;-74
2023/06/19 05:47:20;;;;;;;14.05;9.50;;;21.10;99.90;;;;;;5041723;28;20045;-74
2023/06/19 05:49:47;;;;;;;16.73;10.35;;;21.10;99.90;;;;;;5042698;28;20042;-73
2023/06/19 05:52:12;;;;;;;10.98;9.18;;;21.20;99.90;;;;;;5043344;28;20085;-74
2023/06/19 05:54:38;;;;;;;15.98;9.73;;;21.20;99.90;;;;;;5042974;28;20037;-73
2023/06/19 05:57:04;;;;;;;11.88;9.43;;;21.30;99.90;;;;;;5041374;28;20100;-74
2023/06/19 05:59:29;;;;;;;13.40;9.45;;;21.30;99.90;;;;;;5042393;28;20029;-73
2023/06/19 06:01:55;;;;;;;15.23;9.48;;;21.40;99.90;;;;;;5041097;28;20071;-73
2023/06/19 06:04:21;;;;;;;15.65;10.02;;;21.40;99.90;;;;;;5043225;28;20032;-74
2023/06/19 06:06:47;;;;;;;13.40;10.13;;;21.50;99.90;;;;;;5042576;28;20017;-76
2023/06/19 06:09:13;;;;;;;15.45;9.73;;;21.50;99.90;;;;;;5042891;28;20026;-74
2023/06/19 06:11:38;;;;;;;15.57;10.30;;;21.60;99.90;;;;;;5042659;28;20431;-74
2023/06/19 06:14:04;;;;;;;13.18;9.65;;;21.60;99.90;;;;;;5042537;28;20033;-73
2023/06/19 06:16:30;;;;;;;11.82;9.88;;;21.70;99.90;;;;;;5042302;28;20486;-73
2023/06/19 06:18:55;;;;;;;14.52;10.13;;;21.60;99.90;;;;;;5040474;28;20557;-73
2023/06/19 06:21:21;;;;;;;15.30;9.95;;;21.60;99.90;;;;;;5042327;28;20028;-73
2023/06/19 06:23:47;;;;;;;16.77;10.18;;;21.80;99.90;;;;;;5042147;28;20068;-73
2023/06/19 06:26:14;;;;;;;12.85;9.75;;;21.80;99.90;;;;;;5041495;28;20029;-74
2023/06/19 06:28:40;;;;;;;20.80;9.88;;;21.80;99.90;;;;;;5041029;28;20375;-73
2023/06/19 06:31:05;;;;;;;17.63;9.68;;;21.90;99.90;;;;;;5042332;28;20034;-74
2023/06/19 06:33:31;;;;;;;14.50;9.77;;;22.00;99.90;;;;;;5040984;28;20033;-74
2023/06/19 06:35:57;;;;;;;12.68;9.88;;;22.00;99.90;;;;;;5040694;28;20033;-75
2023/06/19 06:38:23;;;;;;;13.73;10.05;;;22.10;99.90;;;;;;5042034;28;20029;-73
2023/06/19 06:40:48;;;;;;;15.73;10.70;;;22.20;99.90;;;;;;5040905;28;20080;-72
2023/06/19 06:43:14;;;;;;;16.38;9.93;;;22.20;99.90;;;;;;5041810;28;20401;-74
2023/06/19 06:45:42;;;;;;;13.48;10.10;;;22.20;99.90;;;;;;5042396;28;20024;-75
2023/06/19 06:48:07;;;;;;;20.77;10.90;;;22.30;99.90;;;;;;5041850;28;20025;-75
2023/06/19 06:50:33;;;;;;;25.90;10.27;;;22.30;99.90;;;;;;5041732;28;20069;-75
2023/06/19 06:52:59;;;;;;;19.83;10.07;;;22.40;99.90;;;;;;5040943;28;20021;-75
2023/06/19 06:55:25;;;;;;;17.40;10.55;;;22.40;99.90;;;;;;5041599;28;20087;-71
2023/06/19 06:57:50;;;;;;;15.07;10.02;;;22.50;99.90;;;;;;5041923;28;20026;-73
2023/06/19 07:00:18;;;;;;;13.88;10.52;;;22.50;99.90;;;;;;5040643;28;20051;-75
2023/06/19 07:02:43;;;;;;;12.32;10.07;;;22.50;99.90;;;;;;5040553;28;20033;-74
2023/06/19 07:05:10;;;;;;;17.17;10.90;;;22.50;99.90;;;;;;5041749;28;20033;-75
2023/06/19 07:07:36;;;;;;;16.63;10.00;;;22.60;99.90;;;;;;5040685;28;20029;-76
2023/06/19 07:10:01;;;;;;;17.90;10.45;;;22.60;99.90;;;;;;5040184;28;20083;-75
2023/06/19 07:12:27;;;;;;;16.23;10.23;;;22.70;99.90;;;;;;5039867;28;20057;-77
2023/06/19 07:14:56;;;;;;;12.52;9.77;;;22.70;99.90;;;;;;5041354;28;20081;-74
2023/06/19 07:17:21;;;;;;;12.30;10.00;;;22.80;99.90;;;;;;5041065;28;20451;-74
2023/06/19 07:19:47;;;;;;;13.85;10.32;;;22.80;99.90;;;;;;5040568;28;20037;-76
2023/06/19 07:22:14;;;;;;;17.13;10.40;;;22.90;99.90;;;;;;5041254;28;20036;-75
2023/06/19 07:24:42;;;;;;;19.02;10.80;;;23.00;99.90;;;;;;5039572;28;20092;-74
2023/06/19 07:27:08;;;;;;;16.25;9.35;;;23.00;99.90;;;;;;5041237;28;20025;-74
2023/06/19 07:29:34;;;;;;;18.80;9.70;;;23.00;99.90;;;;;;5039317;28;20026;-76
2023/06/19 07:32:02;;;;;;;15.48;9.43;;;23.10;99.90;;;;;;5040931;28;20087;-71
2023/06/19 07:34:28;;;;;;;15.07;10.18;;;23.10;99.90;;;;;;5041405;28;20022;-72
2023/06/19 07:36:53;;;;;;;18.40;9.80;;;23.10;99.90;;;;;;5041509;28;20053;-74
2023/06/19 07:39:19;;;;;;;15.10;9.60;;;23.20;99.90;;;;;;5041225;28;20026;-75
2023/06/19 07:41:45;;;;;;;19.70;9.98;;;23.30;99.90;;;;;;5041838;28;20025;-74
2023/06/19 07:44:11;;;;;;;17.58;10.27;;;23.40;99.90;;;;;;5041268;28;20032;-74
2023/06/19 07:46:37;;;;;;;15.32;10.10;;;23.50;99.90;;;;;;5041357;28;20414;-75
2023/06/19 07:49:02;;;;;;;16.20;10.18;;;23.60;99.90;;;;;;5040343;28;20117;-75
2023/06/19 07:51:28;;;;;;;23.50;10.00;;;23.70;99.90;;;;;;5039255;28;20807;-74
2023/06/19 07:53:54;;;;;;;13.55;9.93;;;23.80;99.90;;;;;;5039767;28;20445;-74
2023/06/19 07:56:19;;;;;;;17.23;9.95;;;23.80;99.90;;;;;;5041223;28;20037;-75
2023/06/19 07:58:47;;;;;;;18.55;9.48;;;23.90;99.90;;;;;;5039156;28;20049;-74
2023/06/19 08:01:12;;;;;;;20.95;9.50;;;24.00;99.90;;;;;;5041173;28;20399;-74
2023/06/19 08:03:38;;;;;;;15.48;9.80;;;24.00;99.90;;;;;;5040093;28;20067;-75
2023/06/19 08:06:03;;;;;;;18.08;8.90;;;24.00;99.90;;;;;;5039597;28;20503;-75
2023/06/19 08:08:29;;;;;;;21.75;8.98;;;24.10;99.90;;;;;;5040845;28;20029;-73
2023/06/19 08:10:54;;;;;;;17.02;8.25;;;24.30;99.90;;;;;;5039380;28;20017;-77
2023/06/19 08:13:20;;;;;;;19.73;8.68;;;24.50;99.90;;;;;;5039397;28;20022;-76
2023/06/19 08:15:47;;;;;;;14.27;8.57;;;24.60;99.90;;;;;;5039914;28;20173;-78
2023/06/19 08:18:12;;;;;;;13.88;9.20;;;24.60;99.90;;;;;;5039288;28;20029;-77
2023/06/19 08:20:38;;;;;;;12.07;8.75;;;24.70;99.90;;;;;;5038497;28;20557;-78
2023/06/19 08:23:04;;;;;;;19.17;9.18;;;24.70;99.90;;;;;;5038868;28;20030;-73
2023/06/19 08:25:29;;;;;;;15.27;8.82;;;24.80;99.90;;;;;;5039057;28;20072;-73
2023/06/19 08:27:55;;;;;;;18.55;8.82;;;25.00;99.90;;;;;;5040563;28;20029;-74
2023/06/19 08:30:20;;;;;;;15.20;8.55;;;25.10;99.90;;;;;;5040100;28;20408;-72
2023/06/19 08:32:48;;;;;;;15.48;8.05;;;25.20;99.90;;;;;;5039600;28;20021;-78
2023/06/19 08:35:15;;;;;;;23.00;8.48;;;25.10;99.90;;;;;;5044466;28;20017;-75
2023/06/19 08:37:40;;;;;;;12.50;7.80;;;25.20;99.90;;;;;;5043309;28;20033;-75
2023/06/19 08:40:09;;;;;;;10.82;7.38;;;25.30;99.90;;;;;;5042111;28;20029;-73
2023/06/19 08:42:35;;;;;;;10.15;7.28;;;25.40;99.90;;;;;;5043320;28;20025;-72
2023/06/19 08:45:01;;;;;;;11.77;7.32;;;25.50;99.90;;;;;;5043098;28;20040;-72
2023/06/19 08:47:31;;;;;;;10.63;8.18;;;25.50;99.90;;;;;;5042803;28;20022;-75
2023/06/19 08:49:58;;;;;;;10.80;8.05;;;25.50;99.90;;;;;;5043411;28;20057;-75
2023/06/19 08:52:24;;;;;;;10.95;7.53;;;25.40;99.90;;;;;;5043218;28;20022;-74
2023/06/19 08:54:49;;;;;;;14.43;8.13;;;25.40;99.90;;;;;;5042078;28;20116;-74
2023/06/19 08:57:15;;;;;;;10.75;8.00;;;25.50;99.90;;;;;;5043366;28;20025;-76
2023/06/19 08:59:50;;;;;;;11.10;8.15;;;25.50;99.90;;;;;;5043150;28;20028;-73
2023/06/19 09:02:16;;;;;;;11.95;8.50;;;25.50;99.90;;;;;;5041390;28;20113;-72
2023/06/19 09:04:42;;;;;;;14.32;8.48;;;25.50;99.90;;;;;;5058702;28;20053;-75
2023/06/19 09:07:08;;;;;;;11.50;8.10;;;25.40;99.90;;;;;;5042483;28;20049;-78
2023/06/19 09:09:34;;;;;;;15.05;8.48;;;25.40;99.90;;;;;;5042966;28;20139;-77
2023/06/19 09:12:00;;;;;;;10.35;8.10;;;25.50;99.90;;;;;;5043794;28;20068;-72
2023/06/19 09:14:35;;;;;;;12.30;7.55;;;25.50;99.90;;;;;;5043737;28;20086;-71
2023/06/19 09:17:05;;;;;;;14.27;8.57;;;25.60;99.90;;;;;;5042747;28;20108;-73
2023/06/19 09:19:34;;;;;;;9.57;7.30;;;25.70;99.90;;;;;;5042155;28;20025;-72
2023/06/19 09:22:04;;;;;;;18.77;7.40;;;25.80;99.90;;;;;;5042307;28;20049;-76
2023/06/19 09:24:38;;;;;;;9.43;6.68;;;25.90;99.90;;;;;;5042984;28;20033;-74
2023/06/19 09:27:13;;;;;;;8.95;6.70;;;26.00;99.90;;;;;;5042427;28;20041;-72
2023/06/19 09:29:43;;;;;;;8.40;6.28;;;26.10;99.90;;;;;;5042562;28;20065;-72
2023/06/19 09:32:23;;;;;;;9.25;6.60;;;26.20;99.90;;;;;;5040697;28;20026;-74
2023/06/19 09:34:50;;;;;;;9.43;6.75;;;26.30;99.90;;;;;;5043169;28;20060;-73
2023/06/19 09:37:27;;;;;;;9.23;6.28;;;26.30;99.90;;;;;;5041995;28;20029;-78
2023/06/19 09:39:55;;;;;;;11.68;7.00;;;26.30;99.90;;;;;;5042592;28;20569;-74
2023/06/19 09:42:32;;;;;;;11.23;6.45;;;26.20;99.90;;;;;;5043219;28;20077;-73
2023/06/19 09:45:04;;;;;;;7.30;5.80;;;26.20;99.90;;;;;;5042209;28;20081;-80
2023/06/19 09:47:42;;;;;;;8.27;6.30;;;26.30;99.90;;;;;;5040665;28;20026;-75
2023/06/19 09:50:08;;;;;;;9.60;5.43;;;26.30;99.90;;;;;;5043053;28;20076;-79
2023/06/19 09:52:34;;;;;;;7.00;5.80;;;26.30;99.90;;;;;;5042539;28;20087;-76
2023/06/19 09:55:02;;;;;;;7.05;5.90;;;26.30;99.90;;;;;;5041222;28;20053;-78
2023/06/19 09:57:30;;;;;;;7.25;5.28;;;26.30;99.90;;;;;;5040969;28;20045;-73
2023/06/19 09:59:58;;;;;;;6.40;4.95;;;26.30;99.90;;;;;;5042849;28;20021;-71
2023/06/19 10:02:26;;;;;;;6.78;5.72;;;26.40;99.90;;;;;;5042805;28;20025;-72
2023/06/19 10:04:55;;;;;;;10.85;6.18;;;26.40;99.90;;;;;;5041168;28;20022;-77
2023/06/19 10:07:32;;;;;;;10.18;5.85;;;26.30;99.90;;;;;;5042548;28;20025;-72
2023/06/19 10:10:06;;;;;;;9.82;6.97;;;26.30;99.90;;;;;;5041334;28;20030;-71
2023/06/19 10:12:35;;;;;;;;;;;26.20;99.90;;;;;;5041711;28;20041;-73
2023/06/19 10:15:11;;;;;;;11.90;7.43;;;26.30;99.90;;;;;;5042773;28;19912;-73
2023/06/19 10:17:38;;;;;;;10.93;8.63;;;26.30;99.90;;;;;;5040653;28;20446;-74
2023/06/19 10:20:04;;;;;;;13.30;8.80;;;26.30;99.90;;;;;;5041939;28;20027;-79
2023/06/19 10:22:33;;;;;;;11.85;9.23;;;26.30;99.90;;;;;;5041391;28;20471;-73
2023/06/19 10:24:58;;;;;;;13.02;9.02;;;26.30;99.90;;;;;;5041541;28;20402;-73
2023/06/19 10:27:25;;;;;;;14.50;9.85;;;26.20;99.90;;;;;;5040732;28;20323;-80
2023/06/19 10:29:54;;;;;;;13.95;9.98;;;26.20;99.90;;;;;;5042584;28;20021;-79
2023/06/19 10:32:20;;;;;;;10.80;9.70;;;26.20;99.90;;;;;;5040512;28;20025;-80
2023/06/19 10:34:50;;;;;;;11.70;10.70;;;26.10;99.90;;;;;;5040343;28;20034;-71
2023/06/19 10:37:16;;;;;;;16.80;15.30;;;26.20;99.90;;;;;;5040417;28;20033;-75
2023/06/19 10:39:43;;;;;;;16.13;14.52;;;26.20;99.90;;;;;;5041208;28;20026;-78
2023/06/19 10:42:10;;;;;;;15.95;14.38;;;26.20;99.90;;;;;;5040247;28;20021;-80
2023/06/19 10:44:41;;;;;;;14.52;13.00;;;26.10;99.90;;;;;;5042380;28;20060;-76
2023/06/19 10:47:10;;;;;;;12.63;8.82;;;26.00;99.90;;;;;;5041073;28;20022;-77
2023/06/19 10:49:35;;;;;;;9.90;7.80;;;26.00;99.90;;;;;;5040043;28;20041;-70
2023/06/19 10:52:01;;;;;;;8.85;7.95;;;25.90;99.90;;;;;;5042502;28;20105;-75
2023/06/19 10:54:28;;;;;;;10.60;7.00;;;25.90;99.90;;;;;;5040670;28;20035;-71
2023/06/19 10:56:54;;;;;;;10.35;6.20;;;25.80;99.90;;;;;;5039608;28;20048;-71
2023/06/19 10:59:20;;;;;;;6.72;5.22;;;25.70;99.90;;;;;;5040859;28;20518;-77
2023/06/19 11:01:47;;;;;;;7.00;5.43;;;25.60;99.90;;;;;;5042345;28;20045;-74
2023/06/19 11:04:14;;;;;;;5.75;4.45;;;25.60;99.90;;;;;;5041699;28;20052;-74
2023/06/19 11:06:42;;;;;;;7.93;4.43;;;25.60;99.90;;;;;;5041940;28;20024;-75
2023/06/19 11:09:08;;;;;;;8.25;4.68;;;25.70;99.90;;;;;;5040316;28;20036;-80
2023/06/19 11:11:43;;;;;;;10.35;5.00;;;25.60;99.90;;;;;;5041418;28;20026;-74
2023/06/19 11:14:10;;;;;;;7.03;4.80;;;25.60;99.90;;;;;;5040375;28;20028;-74
2023/06/19 11:16:40;;;;;;;4.90;4.40;;;25.70;99.90;;;;;;5040894;28;20053;-73
2023/06/19 11:19:13;;;;;;;9.70;4.85;;;25.90;99.90;;;;;;5041692;28;20032;-71
2023/06/19 11:21:39;;;;;;;6.30;4.53;;;25.90;99.90;;;;;;5042004;28;20116;-72
2023/06/19 11:24:10;;;;;;;7.30;6.03;;;25.90;99.90;;;;;;5041514;28;20095;-75
2023/06/19 11:26:38;;;;;;;11.68;7.97;;;26.00;99.90;;;;;;5041879;28;20032;-72
2023/06/19 11:29:15;;;;;;;13.40;8.07;;;26.20;99.90;;;;;;5039849;28;20017;-72
2023/06/19 11:31:40;;;;;;;10.50;9.40;;;26.10;99.90;;;;;;5040866;28;20026;-74
2023/06/19 11:34:06;;;;;;;12.95;8.50;;;26.00;99.90;;;;;;5041762;28;20072;-73
2023/06/19 11:36:31;;;;;;;10.70;6.72;;;25.90;99.90;;;;;;5041200;28;20030;-74
2023/06/19 11:38:57;;;;;;;6.30;5.70;;;25.80;99.90;;;;;;5041277;28;20029;-74
2023/06/19 11:41:28;;;;;;;6.07;5.40;;;25.80;99.90;;;;;;5040210;28;20029;-77
2023/06/19 11:44:09;;;;;;;10.73;5.47;;;25.90;99.90;;;;;;5039998;28;20030;-73
2023/06/19 11:46:35;;;;;;;5.03;4.47;;;25.90;99.90;;;;;;5039622;28;20800;-72
2023/06/19 11:49:19;;;;;;;6.18;4.40;;;26.00;99.90;;;;;;5039950;28;20057;-76
2023/06/19 11:51:45;;;;;;;7.95;4.03;;;26.00;99.90;;;;;;5041018;28;20101;-73
2023/06/19 11:54:18;;;;;;;6.60;3.70;;;26.00;99.90;;;;;;5041336;28;20030;-73
2023/06/19 11:56:43;;;;;;;9.55;3.85;;;26.00;99.90;;;;;;5041766;28;20095;-72
2023/06/19 11:59:09;;;;;;;6.10;4.15;;;25.90;99.90;;;;;;5041011;28;20416;-77
2023/06/19 12:01:36;;;;;;;7.05;3.90;;;26.00;99.90;;;;;;5040058;28;20040;-73
2023/06/19 12:04:03;;;;;;;6.60;4.10;;;25.90;99.90;;;;;;5041067;28;20026;-73
2023/06/19 12:06:29;;;;;;;7.28;3.78;;;25.90;99.90;;;;;;5040266;28;20028;-72
2023/06/19 12:08:54;;;;;;;5.40;4.50;;;25.80;99.90;;;;;;5043031;28;21027;-72
2023/06/19 12:11:20;;;;;;;5.68;4.50;;;25.90;99.90;;;;;;5044857;28;20017;-72
2023/06/19 12:13:46;;;;;;;7.43;3.78;;;25.80;99.90;;;;;;5044727;28;20029;-73
2023/06/19 12:16:12;;;;;;;9.85;4.78;;;25.80;99.90;;;;;;5045260;28;20401;-75
2023/06/19 12:18:37;;;;;;;6.68;4.30;;;25.80;99.90;;;;;;5044547;28;20038;-73
2023/06/19 12:21:04;;;;;;;7.15;5.03;;;25.70;99.90;;;;;;5043161;28;20413;-70
2023/06/19 12:23:29;;;;;;;9.82;6.93;;;25.60;99.90;;;;;;5044754;28;20044;-73
2023/06/19 12:25:55;;;;;;;8.23;6.88;;;25.50;99.90;;;;;;5043016;28;20120;-72
2023/06/19 12:28:21;;;;;;;8.35;7.47;;;25.50;99.90;;;;;;5044593;28;20112;-75
2023/06/19 12:30:51;;;;;;;16.90;13.88;;;25.50;99.90;;;;;;5043513;28;20057;-73
2023/06/19 12:33:17;;;;;;;12.93;11.63;;;25.50;99.90;;;;;;5043238;28;20037;-73
2023/06/19 12:35:43;;;;;;;14.02;12.57;;;25.50;99.90;;;;;;5044596;28;20018;-73